Latest Coastal Weather Observations for Hamilton Island

IDQ60701

Issued at 1:05 pm EST Tuesday 16 September 2014 (issued every 10 minutes, with the page automatically refreshed every 10 minutes)

About coastal observations | Map of coastal stations | Coastal observations for QLD | Marine services | Other Formats
Station Details ID: 033106 Name: HAMILTON ISLAND AIRPORT Lat: -20.37 Lon: 148.95 Height: 58.66 m
Data from the previous 72 hours. | See also: Recent months at Hamilton Island
Date/Time
EST
Temp

°C
Wind Pressure Rain
since 9am
mm
Weather Cloud Vis
km
Sea
Height
m
Swell
Dir
 
Speed
knots
Gust
knots
hPa Trend Height
m
Period
s
Dir
16/01:00pm 23.8 SE 8 10 1016.5 - 0.0 - - 10 - - - -
16/12:30pm 23.2 SSE 10 12 1016.9 - 0.0 - - 10 - - - -
16/12:00pm 23.0 SSE 10 12 1017.1 - 0.0 - - 10 - - - -
16/11:30am 23.1 SSE 11 14 1017.7 - 0.0 - - 10 - - - -
16/11:01am 22.5 SSE 11 14 1018.2 - 0.0 - Partly cloudy 10 - - - -
16/11:00am 22.8 SSE 11 14 1018.2 - 0.0 - Partly cloudy 10 - - - -
16/10:30am 22.6 SSE 11 14 1018.4 - 0.0 - Partly cloudy 10 - - - -
16/10:00am 23.2 S 9 12 1018.6 - 0.0 - Partly cloudy 10 - - - -
16/09:30am 21.6 SSE 11 15 1018.7 - 0.0 - Partly cloudy 10 - - - -
16/09:24am 22.4 SSE 11 14 1018.7 - 0.0 - Partly cloudy 10 - - - -
16/09:18am 22.1 SSE 10 14 1018.7 - 0.0 - Partly cloudy 10 - - - -
16/09:07am 21.7 SSE 10 13 1018.7 - 0.0 - Partly cloudy 10 - - - -
16/09:00am 22.7 SSE 9 13 1018.5 - 0.0 - Cloudy 10 - - - -
16/08:30am 21.5 SSE 10 13 1018.7 - 0.0 - Partly cloudy 10 - - - -
16/08:00am 21.4 SSE 10 13 1018.6 - 0.0 - Partly cloudy 10 - - - -
16/07:30am 20.6 SSE 10 13 1018.2 - 0.0 - Partly cloudy 10 - - - -
16/07:00am 20.3 SSE 11 13 1017.9 - 0.0 - Partly cloudy 10 - - - -
16/06:30am 19.5 S 8 9 1017.3 - 0.0 - Partly cloudy 10 - - - -
16/06:26am 19.5 S 8 9 1017.2 - 0.0 - Partly cloudy 10 - - - -
16/06:00am 19.4 S 8 9 1016.9 - 0.0 - Cloudy 10 - - - -
16/05:30am 19.6 S 8 9 1016.9 - 0.0 - Cloudy 10 - - - -
16/05:00am 19.6 S 7 8 1016.8 - 0.0 - Partly cloudy 10 - - - -
16/04:34am 19.6 S 8 10 1016.7 - 0.0 - Partly cloudy 10 - - - -
16/04:30am 19.7 S 7 10 1016.7 - 0.0 - Partly cloudy 10 - - - -
16/04:29am 19.7 S 7 10 1016.6 - 0.0 - Partly cloudy 10 - - - -
16/04:19am 19.7 SSE 6 8 1016.5 - 0.0 - Partly cloudy 6 - - - -
16/04:00am 19.6 SSE 5 7 1016.3 - 0.0 - Partly cloudy 10 - - - -
16/03:41am 19.6 SSE 5 7 1016.3 - 0.0 - Partly cloudy 10 - - - -
16/03:30am 19.7 SE 5 7 1016.3 - 0.0 - Partly cloudy 10 - - - -
16/03:00am 19.7 SE 7 8 1016.2 - 0.0 - Cloudy 10 - - - -
16/02:34am 19.7 SSE 7 8 1016.4 - 0.0 - Partly cloudy 10 - - - -
16/02:30am 19.5 SSE 7 9 1016.4 - 0.0 - Partly cloudy 10 - - - -
16/02:00am 19.8 SE 7 9 1016.5 - 0.0 - Partly cloudy 10 - - - -
16/01:30am 19.8 SE 7 9 1016.7 - 0.0 - Partly cloudy 10 - - - -
16/01:00am 19.9 ESE 7 9 1016.9 - 0.0 - Partly cloudy 10 - - - -
16/12:30am 20.1 ESE 8 9 1016.9 - 0.0 - Partly cloudy 10 - - - -
16/12:00am 20.2 SE 9 11 1016.9 - 0.0 - - 10 - - - -
 
Date/Time
EST
Temp

°C
Wind Pressure Rain
since 9am
mm
Weather Cloud Vis
km
Sea
Height
m
Swell
Dir
 
Speed
knots
Gust
knots
hPa Trend Height
m
Period
s
Dir
15/11:30pm 20.5 ESE 10 13 1017.2 - 0.0 - Partly cloudy 10 - - - -
15/11:00pm 20.6 ESE 11 14 1017.3 - 0.0 - Partly cloudy 10 - - - -
15/10:30pm 20.6 ESE 12 15 1017.3 - 0.0 - Partly cloudy 10 - - - -
15/10:00pm 20.7 ESE 13 16 1017.4 - 0.0 - Partly cloudy 10 - - - -
15/09:30pm 20.6 ESE 12 15 1017.4 - 0.0 - - 10 - - - -
15/09:00pm 20.6 ESE 12 15 1017.2 - 0.0 - - 10 - - - -
15/08:30pm 20.6 ESE 13 15 1017.2 - 0.0 - - 10 - - - -
15/08:00pm 20.7 ESE 15 18 1017.1 - 0.0 - Partly cloudy 10 - - - -
15/07:30pm 20.8 ESE 16 19 1016.7 - 0.0 - Partly cloudy 10 - - - -
15/07:00pm 20.9 ESE 17 20 1016.3 - 0.0 - - 10 - - - -
15/06:30pm 21.0 ESE 19 21 1016.1 - 0.0 - - 10 - - - -
15/06:00pm 20.9 ESE 17 19 1015.7 - 0.0 - - 10 - - - -
15/05:30pm 21.2 ESE 15 17 1015.7 - 0.0 - Partly cloudy 10 - - - -
15/05:00pm 21.4 ESE 14 17 1015.7 - 0.0 - Partly cloudy 10 - - - -
15/04:30pm 21.8 ESE 14 16 1015.5 - 0.0 - Partly cloudy 10 - - - -
15/04:00pm 22.0 SE 14 16 1015.3 - 0.0 - Partly cloudy 10 - - - -
15/03:30pm 22.4 SE 14 16 1015.4 - 0.0 - Partly cloudy 10 - - - -
15/03:00pm 22.7 ESE 14 16 1015.2 - 0.0 - Cloudy 10 - - - -
15/02:30pm 23.1 ESE 15 17 1015.7 - 0.0 - Partly cloudy 10 - - - -
15/02:00pm 23.3 SE 14 17 1015.9 - 0.0 - - 10 - - - -
15/01:30pm 23.8 ESE 14 17 1016.2 - 0.0 - - 10 - - - -
15/01:00pm 23.8 ESE 14 16 1016.3 - 0.0 - Partly cloudy 10 - - - -
15/12:30pm 24.0 SE 14 16 1016.7 - 0.0 - Partly cloudy 10 - - - -
15/12:00pm 24.5 SE 17 19 1016.7 - 0.0 - Cloudy 10 - - - -
15/11:30am 24.2 SE 18 20 1017.3 - 0.0 - Partly cloudy 10 - - - -
15/11:00am 22.4 SSE 19 21 1017.7 - 0.0 - Partly cloudy 10 - - - -
15/10:30am 24.2 SE 17 21 1018.2 - 0.0 - Partly cloudy 10 - - - -
15/10:27am 23.3 SSE 17 20 1018.2 - 0.0 - Partly cloudy 10 - - - -
15/10:09am 22.5 SSE 18 22 1018.4 - 0.0 - Partly cloudy 10 - - - -
15/10:00am 22.5 SSE 17 20 1018.6 - 0.0 - Partly cloudy 10 - - - -
15/09:30am 21.5 SSE 16 20 1018.8 - 0.0 - Partly cloudy - - - - -
15/09:00am 22.8 SE 16 19 1018.5 - 0.0 - Cloudy 10 - - - -
15/08:30am 22.1 SSE 15 18 1018.8 - 0.0 - Partly cloudy 10 - - - -
15/08:00am 21.6 SSE 17 19 1018.6 - 0.0 - Partly cloudy 10 - - - -
15/07:30am 22.4 SE 17 20 1018.3 - 0.0 - Partly cloudy 10 - - - -
15/07:00am 21.1 SE 18 20 1018.0 - 0.0 - Partly cloudy 10 - - - -
15/06:30am 20.7 SE 16 19 1017.8 - 0.0 - Partly cloudy 10 - - - -
15/06:00am 20.5 SE 15 16 1017.2 - 0.0 - Cloudy 10 - - - -
15/05:30am 20.6 SE 15 18 1017.3 - 0.0 - Partly cloudy 10 - - - -
15/05:00am 20.6 SE 17 19 1017.1 - 0.0 - Partly cloudy 10 - - - -
15/04:30am 20.6 SE 16 18 1016.9 - 0.0 - Partly cloudy 10 - - - -
15/04:00am 20.6 SE 15 18 1016.8 - 0.0 - Partly cloudy 10 - - - -
15/03:30am 20.6 SE 15 18 1016.8 - 0.0 - Partly cloudy 10 - - - -
15/03:00am 20.6 SE 16 20 1016.7 - 0.0 - Cloudy 10 - - - -
15/02:30am 20.6 SE 16 20 1016.9 - 0.0 - Partly cloudy 10 - - - -
15/02:22am 20.7 SE 17 23 1016.9 - 0.0 - Partly cloudy 10 - - - -
15/02:00am 20.7 SE 17 19 1017.0 - 0.0 - Partly cloudy 10 - - - -
15/01:30am 20.6 SE 16 19 1017.4 - 0.0 - Partly cloudy 10 - - - -
15/01:25am 20.6 SE 17 21 1017.5 - 0.0 - Partly cloudy 10 - - - -
15/01:00am 20.6 SE 17 20 1017.7 - 0.0 - Partly cloudy 10 - - - -
15/12:46am 20.8 SE 17 21 1017.8 - 0.0 - Partly cloudy 10 - - - -
15/12:30am 20.8 SE 19 22 1017.7 - 0.0 - Partly cloudy 10 - - - -
15/12:27am 20.7 SE 19 22 1017.7 - 0.0 - Partly cloudy 10 - - - -
15/12:00am 21.0 SE 18 22 1017.9 - 0.0 - Cloudy 10 - - - -
 
Date/Time
EST
Temp

°C
Wind Pressure Rain
since 9am
mm
Weather Cloud Vis
km
Sea
Height
m
Swell
Dir
 
Speed
knots
Gust
knots
hPa Trend Height
m
Period
s
Dir
14/11:34pm 20.9 SE 20 24 1018.2 - 0.0 - Partly cloudy 10 - - - -
14/11:30pm 21.0 SE 20 24 1018.4 - 0.0 - Partly cloudy 10 - - - -
14/11:18pm 20.9 SE 17 20 1018.4 - 0.0 - Partly cloudy 10 - - - -
14/11:00pm 21.0 SE 20 24 1018.4 - 0.0 - Partly cloudy 10 - - - -
14/10:30pm 21.3 ESE 21 24 1018.2 - 0.0 - - 10 - - - -
14/10:00pm 21.2 SE 16 18 1018.2 - 0.0 - Partly cloudy 10 - - - -
14/09:30pm 21.2 SE 19 23 1018.1 - 0.0 - Partly cloudy 10 - - - -
14/09:00pm 20.9 SE 18 20 1018.1 - 0.0 - - 10 - - - -
14/08:30pm 20.9 SE 19 22 1018.3 - 0.0 - - 10 - - - -
14/08:00pm 20.9 SE 18 22 1018.2 - 0.0 - Partly cloudy 10 - - - -
14/07:30pm 20.9 SE 18 21 1018.0 - 0.0 - Partly cloudy 10 - - - -
14/07:00pm 21.0 SE 19 21 1017.8 - 0.0 - Partly cloudy 10 - - - -
14/06:30pm 21.1 SE 19 21 1017.5 - 0.0 - Partly cloudy 10 - - - -
14/06:00pm 21.2 SE 20 24 1017.1 - 0.0 - Cloudy 10 - - - -
14/05:30pm 21.3 SE 20 24 1017.3 - 0.0 - Partly cloudy 10 - - - -
14/05:00pm 21.3 SE 20 23 1017.1 - 0.0 - Partly cloudy 10 - - - -
14/04:30pm 21.2 SSE 19 23 1016.9 - 0.0 - Partly cloudy 10 - - - -
14/04:00pm 21.6 SSE 20 23 1016.7 - 0.0 - Partly cloudy 10 - - - -
14/03:30pm 21.3 SSE 21 24 1016.7 - 0.0 - Partly cloudy 10 - - - -
14/03:00pm 21.0 SSE 21 25 1016.6 - 0.0 - Cloudy 10 - - - -
14/02:30pm 21.3 SSE 20 24 1017.0 - 0.0 - Partly cloudy 10 - - - -
14/02:00pm 21.7 SSE 21 24 1017.3 - 0.0 - Partly cloudy 10 - - - -
14/01:30pm 21.2 SSE 21 25 1017.7 - 0.0 - Partly cloudy 10 - - - -
14/01:00pm 22.3 SSE 21 25 1018.0 - 0.0 - Partly cloudy 10 - - - -
14/12:30pm 22.0 SSE 21 25 1018.4 - 0.0 - Partly cloudy 10 - - - -
14/12:00pm 21.6 SSE 21 25 1018.5 - 0.0 - Cloudy 10 - - - -
14/11:30am 22.4 SSE 20 24 1018.9 - 0.0 - Partly cloudy 10 - - - -
14/11:00am 22.3 SSE 19 22 1019.2 - 0.0 - Partly cloudy 10 - - - -
14/10:30am 21.3 SSE 17 22 1019.5 - 0.0 - Partly cloudy 10 - - - -
14/10:00am 21.2 SSE 18 23 1019.7 - 0.0 - Partly cloudy 10 - - - -
14/09:30am 21.4 SSE 20 26 1019.7 - 0.0 - Partly cloudy 10 - - - -
14/09:00am 20.6 SSE 17 23 1019.4 - 0.0 - Cloudy 10 - - - -
14/08:30am 20.3 SSE 19 23 1019.4 - 0.0 - Partly cloudy 10 - - - -
14/08:00am 22.6 SE 24 28 1018.8 - 0.0 - Partly cloudy 10 - - - -
14/07:30am 21.9 SE 22 26 1018.7 - 0.0 - Partly cloudy 10 - - - -
14/07:00am 20.8 SE 22 25 1018.5 - 0.0 - Partly cloudy 10 - - - -
14/06:30am 20.5 SE 23 26 1018.0 - 0.0 - Partly cloudy 10 - - - -
14/06:00am 20.4 SE 22 25 1017.5 - 0.0 - Cloudy 10 - - - -
14/05:30am 20.4 SE 21 26 1017.6 - 0.0 - Partly cloudy 10 - - - -
14/05:00am 20.6 SE 24 27 1017.2 - 0.0 - Partly cloudy 10 - - - -
14/04:30am 20.7 SE 23 27 1017.0 - 0.0 - Partly cloudy 10 - - - -
14/04:00am 20.6 SE 21 25 1017.0 - 0.0 - Partly cloudy 10 - - - -
14/03:30am 20.5 SE 21 23 1017.0 - 0.0 - Partly cloudy - - - - -
14/03:00am 20.6 SE 22 26 1017.2 - 0.0 - Cloudy 10 - - - -
14/02:30am 20.6 SE 21 26 1017.8 - 0.0 - Partly cloudy 10 - - - -
14/02:00am 20.6 SE 22 25 1018.2 - 0.0 - Partly cloudy 10 - - - -
14/01:30am 20.6 SE 20 23 1018.8 - 0.0 - Partly cloudy 10 - - - -
14/01:00am 20.5 SE 20 23 1019.1 - 0.0 - Partly cloudy 10 - - - -
14/12:30am 20.6 SE 21 24 1019.5 - 0.0 - Partly cloudy 10 - - - -
14/12:00am 20.6 SE 21 24 1019.3 - 0.0 - Cloudy 10 - - - -
 
Date/Time
EST
Temp

°C
Wind Pressure Rain
since 9am
mm
Weather Cloud Vis
km
Sea
Height
m
Swell
Dir
 
Speed
knots
Gust
knots
hPa Trend Height
m
Period
s
Dir
13/11:30pm 20.5 SE 20 24 1019.9 - 0.0 - Partly cloudy 10 - - - -
13/11:00pm 20.7 SE 20 25 1020.0 - 0.0 - Partly cloudy 10 - - - -
13/10:30pm 20.7 SE 19 21 1020.3 - 0.0 - Partly cloudy 10 - - - -
13/10:00pm 20.5 SE 19 22 1020.2 - 0.0 - Partly cloudy 10 - - - -
13/09:30pm 20.7 SE 18 21 1020.3 - 0.0 - Partly cloudy 10 - - - -
13/09:00pm 20.8 SE 17 19 1020.0 - 0.0 - Cloudy 10 - - - -
13/08:30pm 20.9 SE 18 21 1020.1 - 0.0 - - 10 - - - -
13/08:00pm 21.0 SE 21 25 1019.9 - 0.0 - Partly cloudy 10 - - - -
13/07:30pm 21.1 SE 21 25 1019.5 - 0.0 - Partly cloudy 10 - - - -
13/07:00pm 21.0 SE 21 25 1019.1 - 0.0 - - 10 - - - -
13/06:30pm 21.1 SE 21 25 1018.9 - 0.0 - - 10 - - - -
13/06:00pm 21.2 SE 20 22 1018.5 - 0.0 - Cloudy 10 - - - -
13/05:30pm 21.4 SE 19 22 1018.5 - 0.0 - Partly cloudy 10 - - - -
13/05:00pm 21.7 ESE 19 22 1018.3 - 0.0 - - 10 - - - -
13/04:30pm 21.8 ESE 21 23 1018.1 - 0.0 - - 10 - - - -
13/04:00pm 22.1 ESE 21 24 1018.2 - 0.0 - Partly cloudy 10 - - - -
13/03:30pm 22.8 ESE 21 24 1018.3 - 0.0 - Partly cloudy 10 - - - -
13/03:00pm 22.9 ESE 20 23 1018.0 - 0.0 - Cloudy 10 - - - -
13/02:30pm 23.4 ESE 20 24 1018.4 - 0.0 - Partly cloudy 10 - - - -
13/02:00pm 23.1 SE 21 24 1018.6 - 0.0 - - 10 - - - -
13/01:30pm 23.7 ESE 20 23 1018.8 - 0.0 - Partly cloudy 10 - - - -

Other Formats:

Comma delimited format used in spreadsheet applications
http://www.bom.gov.au/fwo/IDQ60701/IDQ60701.94368.axf

JavaScript Object Notation format (JSON) in row-major order
http://www.bom.gov.au/fwo/IDQ60701/IDQ60701.94368.json